aviador You're here:

SLVR Decoded Metar

SANTA CRUZ in BOLIVIA
Report Time2018-06-25 11:00:00
UTC Time2018-06-25 11:46:56
Flight Rules mvfr MVFR
Wind170° at 03 kt
W.Decomp.*RWY 16: 2.8 kt HW 1.0 kt RCW
W.Rank170° ranks 6
Current wind is below 170° avg. (10.9)
Visibility9999 m
Phenomena:N/A
Clouds:Broken 027 Hf
Overcast 070 Hf
Expected CloudBase > 1,200 ft AGL from Temp-Dew spread
Ceiling2,700 ft
Temp17°C (ISA +4)
Dew Point14°C (83% RH)
QNH1016 hPa
Density Alt1,864 ft
Elevation1,224 ft
Report Wrong Elevation
Raw Report
METAR SLVR 251100Z 17003KT 9999 BKN027 OVC070 17/14 Q1016=

Extra information for SLVR:More info

Metar Taf Metar & Taf Last 4 Metars F.Rules Stats Wind Profile Meteogram Temp Stats Airport Information Weather charts Add Link Nearby VenuesMetar ALERT Operation Metar Decoded Social comments